sensor_id;sensor_type;location;lat;lon;timestamp;pressure;altitude;pressure_sealevel;temperature;humidity
24610;BME280;12758;47.890;11.694;2023-06-26T00:01:09;93968.19;;;22.94;54.71
24610;BME280;12758;47.890;11.694;2023-06-26T00:03:35;93968.19;;;22.91;54.83
24610;BME280;12758;47.890;11.694;2023-06-26T00:06:01;93971.38;;;22.86;55.16
24610;BME280;12758;47.890;11.694;2023-06-26T00:08:28;93968.25;;;22.80;55.23
24610;BME280;12758;47.890;11.694;2023-06-26T00:10:55;93970.22;;;22.79;55.15
24610;BME280;12758;47.890;11.694;2023-06-26T00:13:23;93967.47;;;22.79;55.21
24610;BME280;12758;47.890;11.694;2023-06-26T00:15:50;93961.91;;;22.76;55.62
24610;BME280;12758;47.890;11.694;2023-06-26T00:18:16;93963.50;;;22.77;55.51
24610;BME280;12758;47.890;11.694;2023-06-26T00:20:42;93964.31;;;22.74;55.42
24610;BME280;12758;47.890;11.694;2023-06-26T00:23:08;93967.88;;;22.74;55.47
24610;BME280;12758;47.890;11.694;2023-06-26T00:25:34;93963.53;;;22.73;55.31
24610;BME280;12758;47.890;11.694;2023-06-26T00:28:00;93970.63;;;22.74;55.33
24610;BME280;12758;47.890;11.694;2023-06-26T00:30:27;93977.78;;;22.68;55.24
24610;BME280;12758;47.890;11.694;2023-06-26T00:32:53;93976.97;;;22.71;55.14
24610;BME280;12758;47.890;11.694;2023-06-26T00:35:19;93975.00;;;22.68;54.92
24610;BME280;12758;47.890;11.694;2023-06-26T00:37:45;93970.69;;;22.64;54.87
24610;BME280;12758;47.890;11.694;2023-06-26T00:40:12;93967.50;;;22.65;54.89
24610;BME280;12758;47.890;11.694;2023-06-26T00:42:38;93970.69;;;22.64;55.04
24610;BME280;12758;47.890;11.694;2023-06-26T00:45:06;93968.31;;;22.62;54.83
24610;BME280;12758;47.890;11.694;2023-06-26T00:47:32;93969.09;;;22.63;54.68
24610;BME280;12758;47.890;11.694;2023-06-26T00:49:58;93970.72;;;22.60;54.58
24610;BME280;12758;47.890;11.694;2023-06-26T00:52:24;93975.06;;;22.58;54.81
24610;BME280;12758;47.890;11.694;2023-06-26T00:54:50;93969.91;;;22.56;54.70
24610;BME280;12758;47.890;11.694;2023-06-26T00:57:17;93971.91;;;22.52;54.64
24610;BME280;12758;47.890;11.694;2023-06-26T00:59:43;93971.53;;;22.50;54.84
24610;BME280;12758;47.890;11.694;2023-06-26T01:02:10;93964.41;;;22.49;54.72
24610;BME280;12758;47.890;11.694;2023-06-26T01:04:36;93965.22;;;22.46;54.61
24610;BME280;12758;47.890;11.694;2023-06-26T01:07:03;93967.59;;;22.44;54.84
24610;BME280;12758;47.890;11.694;2023-06-26T01:09:30;93973.97;;;22.41;54.85
24610;BME280;12758;47.890;11.694;2023-06-26T01:11:56;93967.25;;;22.38;54.83
24610;BME280;12758;47.890;11.694;2023-06-26T01:14:23;93960.94;;;22.38;54.91
24610;BME280;12758;47.890;11.694;2023-06-26T01:16:49;93965.28;;;22.35;55.08
24610;BME280;12758;47.890;11.694;2023-06-26T01:19:19;93969.63;;;22.32;54.97
24610;BME280;12758;47.890;11.694;2023-06-26T01:21:51;93962.53;;;22.31;55.24
24610;BME280;12758;47.890;11.694;2023-06-26T01:24:17;93962.53;;;22.31;55.24
24610;BME280;12758;47.890;11.694;2023-06-26T01:26:46;93962.53;;;22.28;55.42
24610;BME280;12758;47.890;11.694;2023-06-26T01:29:15;93955.81;;;22.25;55.41
24610;BME280;12758;47.890;11.694;2023-06-26T01:31:41;93954.22;;;22.24;55.43
24610;BME280;12758;47.890;11.694;2023-06-26T01:34:07;93966.91;;;22.22;55.70
24610;BME280;12758;47.890;11.694;2023-06-26T01:36:33;93958.59;;;22.18;55.74
24610;BME280;12758;47.890;11.694;2023-06-26T01:39:00;93956.22;;;22.13;55.97
24610;BME280;12758;47.890;11.694;2023-06-26T01:41:26;93953.47;;;22.13;56.06
24610;BME280;12758;47.890;11.694;2023-06-26T01:44:08;93955.03;;;22.10;56.18
24610;BME280;12758;47.890;11.694;2023-06-26T01:46:39;93952.28;;;22.07;56.48
24610;BME280;12758;47.890;11.694;2023-06-26T01:49:08;93945.59;;;22.01;56.57
24610;BME280;12758;47.890;11.694;2023-06-26T01:51:38;93951.50;;;22.03;56.44
24610;BME280;12758;47.890;11.694;2023-06-26T01:54:05;93947.16;;;22.02;56.60
24610;BME280;12758;47.890;11.694;2023-06-26T01:56:34;93949.53;;;22.00;56.60
24610;BME280;12758;47.890;11.694;2023-06-26T01:59:03;93949.53;;;22.03;56.59
24610;BME280;12758;47.890;11.694;2023-06-26T02:01:31;93949.16;;;21.98;56.62
24610;BME280;12758;47.890;11.694;2023-06-26T02:03:58;93954.28;;;21.96;56.82
24610;BME280;12758;47.890;11.694;2023-06-26T02:06:24;93954.28;;;21.96;56.72
24610;BME280;12758;47.890;11.694;2023-06-26T02:08:51;93955.88;;;21.93;56.91
24610;BME280;12758;47.890;11.694;2023-06-26T02:11:16;93953.50;;;21.92;56.97
24610;BME280;12758;47.890;11.694;2023-06-26T02:13:42;93955.88;;;21.90;57.04
24610;BME280;12758;47.890;11.694;2023-06-26T02:16:09;93957.06;;;21.89;57.04
24610;BME280;12758;47.890;11.694;2023-06-26T02:18:35;93961.41;;;21.90;57.04
24610;BME280;12758;47.890;11.694;2023-06-26T02:21:03;93960.63;;;21.85;57.18
24610;BME280;12758;47.890;11.694;2023-06-26T02:23:29;93958.25;;;21.88;57.29
24610;BME280;12758;47.890;11.694;2023-06-26T02:25:55;93960.63;;;21.85;57.30
24610;BME280;12758;47.890;11.694;2023-06-26T02:28:21;93964.59;;;21.81;57.51
24610;BME280;12758;47.890;11.694;2023-06-26T02:30:47;93953.53;;;21.77;57.61
24610;BME280;12758;47.890;11.694;2023-06-26T02:33:13;93954.34;;;21.74;58.03
24610;BME280;12758;47.890;11.694;2023-06-26T02:35:39;93954.34;;;21.74;57.82
24610;BME280;12758;47.890;11.694;2023-06-26T02:38:05;93957.09;;;21.74;57.87
24610;BME280;12758;47.890;11.694;2023-06-26T02:40:31;93957.47;;;21.76;57.91
24610;BME280;12758;47.890;11.694;2023-06-26T02:42:58;93952.72;;;21.73;57.76
24610;BME280;12758;47.890;11.694;2023-06-26T02:45:24;93954.34;;;21.71;57.91
24610;BME280;12758;47.890;11.694;2023-06-26T02:47:50;93949.97;;;21.70;58.12
24610;BME280;12758;47.890;11.694;2023-06-26T02:50:16;93952.75;;;21.66;58.16
24610;BME280;12758;47.890;11.694;2023-06-26T02:52:42;93956.72;;;21.65;58.16
24610;BME280;12758;47.890;11.694;2023-06-26T02:55:08;93957.50;;;21.66;58.16
24610;BME280;12758;47.890;11.694;2023-06-26T02:57:34;93960.66;;;21.64;58.05
24610;BME280;12758;47.890;11.694;2023-06-26T03:00:00;93948.44;;;21.61;58.32
24610;BME280;12758;47.890;11.694;2023-06-26T03:02:26;93955.94;;;21.61;58.25
24610;BME280;12758;47.890;11.694;2023-06-26T03:04:52;93954.34;;;21.60;58.24
24610;BME280;12758;47.890;11.694;2023-06-26T03:07:19;93950.00;;;21.59;58.10
24610;BME280;12758;47.890;11.694;2023-06-26T03:09:45;93945.66;;;21.58;58.29
24610;BME280;12758;47.890;11.694;2023-06-26T03:12:11;93951.19;;;21.54;58.32
24610;BME280;12758;47.890;11.694;2023-06-26T03:14:37;93947.25;;;21.52;58.54
24610;BME280;12758;47.890;11.694;2023-06-26T03:17:03;93950.41;;;21.47;58.80
24610;BME280;12758;47.890;11.694;2023-06-26T03:19:29;93946.44;;;21.44;58.65
24610;BME280;12758;47.890;11.694;2023-06-26T03:21:55;93958.69;;;21.43;58.99
24610;BME280;12758;47.890;11.694;2023-06-26T03:24:22;93949.63;;;21.43;58.93
24610;BME280;12758;47.890;11.694;2023-06-26T03:26:47;93950.81;;;21.42;58.83
24610;BME280;12758;47.890;11.694;2023-06-26T03:29:13;93951.97;;;21.40;58.76
24610;BME280;12758;47.890;11.694;2023-06-26T03:31:39;93955.13;;;21.39;59.14
24610;BME280;12758;47.890;11.694;2023-06-26T03:34:05;93955.13;;;21.39;58.93
24610;BME280;12758;47.890;11.694;2023-06-26T03:36:31;93953.56;;;21.38;58.95
24610;BME280;12758;47.890;11.694;2023-06-26T03:38:57;93951.59;;;21.38;59.15
24610;BME280;12758;47.890;11.694;2023-06-26T03:41:24;93951.97;;;21.40;58.78
24610;BME280;12758;47.890;11.694;2023-06-26T03:43:50;93953.50;;;21.34;59.07
24610;BME280;12758;47.890;11.694;2023-06-26T03:46:16;93959.03;;;21.34;59.04
24610;BME280;12758;47.890;11.694;2023-06-26T03:48:42;93949.59;;;21.32;59.48
24610;BME280;12758;47.890;11.694;2023-06-26T03:51:08;93959.81;;;21.31;59.00
24610;BME280;12758;47.890;11.694;2023-06-26T03:53:34;93959.03;;;21.34;59.16
24610;BME280;12758;47.890;11.694;2023-06-26T03:56:00;93953.50;;;21.34;58.90
24610;BME280;12758;47.890;11.694;2023-06-26T03:58:27;93957.13;;;21.35;58.76
24610;BME280;12758;47.890;11.694;2023-06-26T04:00:52;93958.25;;;21.34;58.89
24610;BME280;12758;47.890;11.694;2023-06-26T04:03:19;93955.91;;;21.32;59.03
24610;BME280;12758;47.890;11.694;2023-06-26T04:05:44;93956.28;;;21.20;59.96
24610;BME280;12758;47.890;11.694;2023-06-26T04:08:10;93953.94;;;21.29;59.21
24610;BME280;12758;47.890;11.694;2023-06-26T04:10:36;93948.41;;;21.29;59.11
24610;BME280;12758;47.890;11.694;2023-06-26T04:13:02;93953.16;;;21.25;59.57
24610;BME280;12758;47.890;11.694;2023-06-26T04:15:29;93945.66;;;21.29;59.04
24610;BME280;12758;47.890;11.694;2023-06-26T04:17:55;93946.44;;;21.30;59.36
24610;BME280;12758;47.890;11.694;2023-06-26T04:20:21;93955.91;;;21.32;59.23
24610;BME280;12758;47.890;11.694;2023-06-26T04:22:47;93953.50;;;21.34;59.07
24610;BME280;12758;47.890;11.694;2023-06-26T04:25:13;93953.50;;;21.34;58.89
24610;BME280;12758;47.890;11.694;2023-06-26T04:27:39;93955.50;;;21.30;60.13
24610;BME280;12758;47.890;11.694;2023-06-26T04:30:06;93956.66;;;21.15;60.38
24610;BME280;12758;47.890;11.694;2023-06-26T04:32:33;93948.78;;;21.21;60.09
24610;BME280;12758;47.890;11.694;2023-06-26T04:34:59;93954.31;;;21.17;60.20
24610;BME280;12758;47.890;11.694;2023-06-26T04:37:25;93951.50;;;20.96;62.30
24610;BME280;12758;47.890;11.694;2023-06-26T04:39:51;93955.84;;;20.89;63.24
24610;BME280;12758;47.890;11.694;2023-06-26T04:42:17;93955.03;;;20.78;65.09
24610;BME280;12758;47.890;11.694;2023-06-26T04:44:44;93947.91;;;20.63;65.05
24610;BME280;12758;47.890;11.694;2023-06-26T04:47:10;93949.47;;;20.64;65.53
24610;BME280;12758;47.890;11.694;2023-06-26T04:49:37;93956.56;;;20.58;66.05
24610;BME280;12758;47.890;11.694;2023-06-26T04:52:03;93950.97;;;20.51;66.95
24610;BME280;12758;47.890;11.694;2023-06-26T04:54:30;93949.41;;;20.50;67.84
24610;BME280;12758;47.890;11.694;2023-06-26T04:56:56;93944.66;;;20.46;68.46
24610;BME280;12758;47.890;11.694;2023-06-26T04:59:22;93938.38;;;20.46;69.07
24610;BME280;12758;47.890;11.694;2023-06-26T05:01:48;93950.97;;;20.43;69.17
24610;BME280;12758;47.890;11.694;2023-06-26T05:04:14;93950.16;;;20.36;70.86
24610;BME280;12758;47.890;11.694;2023-06-26T05:06:41;93957.19;;;20.22;73.62
24610;BME280;12758;47.890;11.694;2023-06-26T05:09:07;93961.50;;;20.16;74.91
24610;BME280;12758;47.890;11.694;2023-06-26T05:11:33;93960.19;;;19.96;77.13
24610;BME280;12758;47.890;11.694;2023-06-26T05:13:59;93963.97;;;19.70;80.16
24610;BME280;12758;47.890;11.694;2023-06-26T05:16:25;93966.38;;;19.75;79.54
24610;BME280;12758;47.890;11.694;2023-06-26T05:18:51;93957.75;;;19.84;78.70
24610;BME280;12758;47.890;11.694;2023-06-26T05:21:18;93954.19;;;19.83;81.84
24610;BME280;12758;47.890;11.694;2023-06-26T05:23:45;93960.00;;;19.67;83.31
24610;BME280;12758;47.890;11.694;2023-06-26T05:26:11;93955.97;;;19.58;84.09
24610;BME280;12758;47.890;11.694;2023-06-26T05:28:39;93957.50;;;19.51;85.44
24610;BME280;12758;47.890;11.694;2023-06-26T05:31:05;93960.63;;;19.46;86.90
24610;BME280;12758;47.890;11.694;2023-06-26T05:33:31;93957.56;;;19.59;86.34
24610;BME280;12758;47.890;11.694;2023-06-26T05:36:00;93955.94;;;19.54;88.26
24610;BME280;12758;47.890;11.694;2023-06-26T05:38:29;93950.56;;;19.65;87.60
24610;BME280;12758;47.890;11.694;2023-06-26T05:40:57;93953.75;;;19.74;85.46
24610;BME280;12758;47.890;11.694;2023-06-26T05:43:23;93957.75;;;19.84;81.79
24610;BME280;12758;47.890;11.694;2023-06-26T05:45:49;93958.56;;;19.84;82.64
24610;BME280;12758;47.890;11.694;2023-06-26T05:48:15;93954.19;;;19.83;82.58
24610;BME280;12758;47.890;11.694;2023-06-26T05:50:42;93955.44;;;19.89;81.96
24610;BME280;12758;47.890;11.694;2023-06-26T05:53:09;93952.38;;;20.09;82.00
24610;BME280;12758;47.890;11.694;2023-06-26T05:55:36;93957.88;;;20.05;80.20
24610;BME280;12758;47.890;11.694;2023-06-26T05:58:03;93953.66;;;20.29;77.72
24610;BME280;12758;47.890;11.694;2023-06-26T06:00:30;93952.47;;;20.27;78.65
24610;BME280;12758;47.890;11.694;2023-06-26T06:02:56;93946.59;;;20.35;78.19
24610;BME280;12758;47.890;11.694;2023-06-26T06:05:22;93953.28;;;20.34;82.16
24610;BME280;12758;47.890;11.694;2023-06-26T06:07:49;93953.34;;;20.48;79.13
24610;BME280;12758;47.890;11.694;2023-06-26T06:10:16;93947.81;;;20.45;84.52
24610;BME280;12758;47.890;11.694;2023-06-26T06:12:42;93947.88;;;20.52;84.14
24610;BME280;12758;47.890;11.694;2023-06-26T06:15:08;93947.84;;;20.48;86.43
24610;BME280;12758;47.890;11.694;2023-06-26T06:17:34;93950.59;;;20.48;89.96
24610;BME280;12758;47.890;11.694;2023-06-26T06:20:00;93946.31;;;20.55;81.51
24610;BME280;12758;47.890;11.694;2023-06-26T06:22:26;93948.66;;;20.56;82.43
24610;BME280;12758;47.890;11.694;2023-06-26T06:24:52;93954.97;;;20.64;81.52
24610;BME280;12758;47.890;11.694;2023-06-26T06:27:18;93951.50;;;20.74;80.80
24610;BME280;12758;47.890;11.694;2023-06-26T06:29:44;93946.41;;;20.90;76.68
24610;BME280;12758;47.890;11.694;2023-06-26T06:32:11;93946.78;;;20.92;79.30
24610;BME280;12758;47.890;11.694;2023-06-26T06:34:37;93946.41;;;20.98;80.69
24610;BME280;12758;47.890;11.694;2023-06-26T06:37:03;93951.94;;;21.12;78.86
24610;BME280;12758;47.890;11.694;2023-06-26T06:39:30;93955.09;;;21.14;74.63
24610;BME280;12758;47.890;11.694;2023-06-26T06:41:56;93951.56;;;21.17;77.16
24610;BME280;12758;47.890;11.694;2023-06-26T06:44:22;93956.28;;;21.27;77.84
24610;BME280;12758;47.890;11.694;2023-06-26T06:46:47;93959.44;;;21.29;76.68
24610;BME280;12758;47.890;11.694;2023-06-26T06:49:14;93956.72;;;21.44;78.76
24610;BME280;12758;47.890;11.694;2023-06-26T06:51:40;93957.41;;;22.05;75.63
24610;BME280;12758;47.890;11.694;2023-06-26T06:54:06;93958.94;;;22.42;72.77
24610;BME280;12758;47.890;11.694;2023-06-26T06:56:32;93969.06;;;22.73;69.21
24610;BME280;12758;47.890;11.694;2023-06-26T06:58:58;93959.84;;;22.98;67.27
24610;BME280;12758;47.890;11.694;2023-06-26T07:01:24;93958.00;;;22.66;66.70
24610;BME280;12758;47.890;11.694;2023-06-26T07:03:50;93952.41;;;22.81;64.66
24610;BME280;12758;47.890;11.694;2023-06-26T07:06:17;93959.81;;;23.01;65.74
24610;BME280;12758;47.890;11.694;2023-06-26T07:08:43;93967.41;;;22.87;66.65
24610;BME280;12758;47.890;11.694;2023-06-26T07:11:09;93960.66;;;22.91;66.63
24610;BME280;12758;47.890;11.694;2023-06-26T07:13:35;93955.56;;;22.79;65.91
24610;BME280;12758;47.890;11.694;2023-06-26T07:16:01;93956.44;;;22.65;69.23
24610;BME280;12758;47.890;11.694;2023-06-26T07:18:27;93957.16;;;22.84;67.78
24610;BME280;12758;47.890;11.694;2023-06-26T07:20:53;93954.13;;;23.27;66.95
24610;BME280;12758;47.890;11.694;2023-06-26T07:23:19;93958.53;;;23.20;64.93
24610;BME280;12758;47.890;11.694;2023-06-26T07:25:45;93957.72;;;23.23;67.31
24610;BME280;12758;47.890;11.694;2023-06-26T07:28:12;93963.09;;;23.45;65.59
24610;BME280;12758;47.890;11.694;2023-06-26T07:30:38;93956.69;;;23.55;63.57
24610;BME280;12758;47.890;11.694;2023-06-26T07:33:04;93956.13;;;23.22;64.13
24610;BME280;12758;47.890;11.694;2023-06-26T07:35:30;93964.56;;;23.60;64.48
24610;BME280;12758;47.890;11.694;2023-06-26T07:37:56;93964.75;;;23.35;65.89
24610;BME280;12758;47.890;11.694;2023-06-26T07:40:22;93961.34;;;23.73;65.61
24610;BME280;12758;47.890;11.694;2023-06-26T07:42:48;93958.66;;;24.03;66.60
24610;BME280;12758;47.890;11.694;2023-06-26T07:45:15;93968.06;;;24.13;65.99
24610;BME280;12758;47.890;11.694;2023-06-26T07:47:41;93970.47;;;24.11;66.58
24610;BME280;12758;47.890;11.694;2023-06-26T07:50:08;93967.66;;;24.14;64.69
24610;BME280;12758;47.890;11.694;2023-06-26T07:52:34;93970.75;;;24.20;64.65
24610;BME280;12758;47.890;11.694;2023-06-26T07:55:00;93966.53;;;24.08;65.67
24610;BME280;12758;47.890;11.694;2023-06-26T07:57:27;93973.47;;;24.24;65.92
24610;BME280;12758;47.890;11.694;2023-06-26T07:59:53;93967.94;;;23.86;68.18
24610;BME280;12758;47.890;11.694;2023-06-26T08:02:19;93966.72;;;23.87;66.20
24610;BME280;12758;47.890;11.694;2023-06-26T08:04:45;93965.38;;;23.57;69.34
24610;BME280;12758;47.890;11.694;2023-06-26T08:07:11;93972.28;;;23.87;69.75
24610;BME280;12758;47.890;11.694;2023-06-26T08:09:39;93977.81;;;23.87;67.02
24610;BME280;12758;47.890;11.694;2023-06-26T08:12:06;93965.00;;;24.00;67.18
24610;BME280;12758;47.890;11.694;2023-06-26T08:14:33;93972.66;;;24.30;66.79
24610;BME280;12758;47.890;11.694;2023-06-26T08:16:58;93966.97;;;24.03;65.58
24610;BME280;12758;47.890;11.694;2023-06-26T08:19:25;93976.56;;;24.33;64.73
24610;BME280;12758;47.890;11.694;2023-06-26T08:21:51;93973.09;;;23.84;67.44
24610;BME280;12758;47.890;11.694;2023-06-26T08:24:17;93969.25;;;23.67;67.25
24610;BME280;12758;47.890;11.694;2023-06-26T08:26:44;93973.91;;;23.81;67.76
24610;BME280;12758;47.890;11.694;2023-06-26T08:29:10;93972.44;;;23.65;66.95
24610;BME280;12758;47.890;11.694;2023-06-26T08:31:37;93968.38;;;23.81;68.74
24610;BME280;12758;47.890;11.694;2023-06-26T08:34:04;93962.34;;;24.31;65.71
24610;BME280;12758;47.890;11.694;2023-06-26T08:36:30;93965.91;;;24.66;67.61
24610;BME280;12758;47.890;11.694;2023-06-26T08:38:57;93959.50;;;24.69;65.88
24610;BME280;12758;47.890;11.694;2023-06-26T08:41:23;93966.19;;;25.05;67.84
24610;BME280;12758;47.890;11.694;2023-06-26T08:43:49;93976.13;;;25.03;62.42
24610;BME280;12758;47.890;11.694;2023-06-26T08:46:16;93962.91;;;24.49;63.44
24610;BME280;12758;47.890;11.694;2023-06-26T08:48:45;93964.13;;;24.82;66.09
24610;BME280;12758;47.890;11.694;2023-06-26T08:51:15;93962.50;;;25.16;60.07
24610;BME280;12758;47.890;11.694;2023-06-26T08:53:52;93963.13;;;25.27;62.51
24610;BME280;12758;47.890;11.694;2023-06-26T08:56:21;93964.06;;;25.44;60.51
24610;BME280;12758;47.890;11.694;2023-06-26T08:58:48;93955.19;;;25.52;58.64
24610;BME280;12758;47.890;11.694;2023-06-26T09:01:14;93959.34;;;25.41;59.58
24610;BME280;12758;47.890;11.694;2023-06-26T09:03:40;93963.31;;;25.13;61.89
24610;BME280;12758;47.890;11.694;2023-06-26T09:06:07;93960.19;;;25.88;54.29
24610;BME280;12758;47.890;11.694;2023-06-26T09:08:34;93956.97;;;25.90;53.51
24610;BME280;12758;47.890;11.694;2023-06-26T09:11:00;93962.16;;;26.11;53.65
24610;BME280;12758;47.890;11.694;2023-06-26T09:13:27;93952.28;;;26.07;54.32
24610;BME280;12758;47.890;11.694;2023-06-26T09:15:54;93955.53;;;26.25;53.75
24610;BME280;12758;47.890;11.694;2023-06-26T09:18:20;93950.13;;;26.18;52.77
24610;BME280;12758;47.890;11.694;2023-06-26T09:20:47;93955.25;;;26.19;51.12
24610;BME280;12758;47.890;11.694;2023-06-26T09:23:14;93944.56;;;26.18;51.18
24610;BME280;12758;47.890;11.694;2023-06-26T09:25:40;93950.63;;;25.89;51.33
24610;BME280;12758;47.890;11.694;2023-06-26T09:28:07;93942.38;;;26.06;45.98
24610;BME280;12758;47.890;11.694;2023-06-26T09:30:34;93938.13;;;26.21;47.09
24610;BME280;12758;47.890;11.694;2023-06-26T09:33:12;93941.69;;;26.65;45.46
24610;BME280;12758;47.890;11.694;2023-06-26T09:35:39;93941.28;;;26.23;46.35
24610;BME280;12758;47.890;11.694;2023-06-26T09:38:05;93953.16;;;26.67;45.30
24610;BME280;12758;47.890;11.694;2023-06-26T09:40:31;93935.81;;;26.59;46.03
24610;BME280;12758;47.890;11.694;2023-06-26T09:43:02;93949.47;;;26.10;46.73
24610;BME280;12758;47.890;11.694;2023-06-26T09:45:28;93929.63;;;26.08;47.96
24610;BME280;12758;47.890;11.694;2023-06-26T09:47:59;93925.63;;;26.53;45.12
24610;BME280;12758;47.890;11.694;2023-06-26T09:50:25;93935.53;;;27.10;44.65
24610;BME280;12758;47.890;11.694;2023-06-26T09:52:52;93933.91;;;26.92;44.56
24610;BME280;12758;47.890;11.694;2023-06-26T09:55:19;93924.28;;;26.37;47.75
24610;BME280;12758;47.890;11.694;2023-06-26T09:57:46;93926.47;;;26.69;46.99
24610;BME280;12758;47.890;11.694;2023-06-26T10:00:14;93931.66;;;26.87;46.83
24610;BME280;12758;47.890;11.694;2023-06-26T10:02:40;93918.56;;;26.05;47.00
24610;BME280;12758;47.890;11.694;2023-06-26T10:05:06;93918.16;;;27.22;44.51
24610;BME280;12758;47.890;11.694;2023-06-26T10:07:32;93925.13;;;27.14;46.01
24610;BME280;12758;47.890;11.694;2023-06-26T10:09:59;93927.50;;;27.12;43.14
24610;BME280;12758;47.890;11.694;2023-06-26T10:12:32;93923.38;;;27.20;44.10
24610;BME280;12758;47.890;11.694;2023-06-26T10:14:59;93916.59;;;27.37;42.18
24610;BME280;12758;47.890;11.694;2023-06-26T10:17:28;93923.72;;;26.86;41.02
24610;BME280;12758;47.890;11.694;2023-06-26T10:19:56;93919.81;;;27.00;43.38
24610;BME280;12758;47.890;11.694;2023-06-26T10:22:27;93920.28;;;26.98;41.45
24610;BME280;12758;47.890;11.694;2023-06-26T10:24:55;93923.22;;;27.27;42.46
24610;BME280;12758;47.890;11.694;2023-06-26T10:27:23;93919.94;;;27.49;41.13
24610;BME280;12758;47.890;11.694;2023-06-26T10:29:51;93916.44;;;27.08;41.17
24610;BME280;12758;47.890;11.694;2023-06-26T10:32:19;93917.84;;;27.53;39.99
24610;BME280;12758;47.890;11.694;2023-06-26T10:34:46;93913.63;;;26.92;40.84
24610;BME280;12758;47.890;11.694;2023-06-26T10:37:12;93912.94;;;27.24;40.86
24610;BME280;12758;47.890;11.694;2023-06-26T10:39:48;93917.06;;;27.36;40.34
24610;BME280;12758;47.890;11.694;2023-06-26T10:42:15;93916.59;;;27.70;39.98
24610;BME280;12758;47.890;11.694;2023-06-26T10:44:42;93907.53;;;27.17;41.14
24610;BME280;12758;47.890;11.694;2023-06-26T10:47:09;93917.59;;;27.11;42.00
24610;BME280;12758;47.890;11.694;2023-06-26T10:49:36;93913.03;;;27.53;39.84
24610;BME280;12758;47.890;11.694;2023-06-26T10:52:04;93913.31;;;27.59;39.49
24610;BME280;12758;47.890;11.694;2023-06-26T10:54:31;93916.78;;;27.79;37.49
24610;BME280;12758;47.890;11.694;2023-06-26T10:56:57;93909.56;;;27.82;37.81
24610;BME280;12758;47.890;11.694;2023-06-26T10:59:25;93910.94;;;28.06;37.45
24610;BME280;12758;47.890;11.694;2023-06-26T11:01:54;93904.75;;;27.66;37.74
24610;BME280;12758;47.890;11.694;2023-06-26T11:04:36;93908.00;;;27.12;39.50
24610;BME280;12758;47.890;11.694;2023-06-26T11:07:15;93914.72;;;27.83;39.56
24610;BME280;12758;47.890;11.694;2023-06-26T11:09:54;93924.94;;;28.19;37.66
24610;BME280;12758;47.890;11.694;2023-06-26T11:12:34;93896.03;;;27.97;37.72
24610;BME280;12758;47.890;11.694;2023-06-26T11:15:01;93908.06;;;27.94;38.05
24610;BME280;12758;47.890;11.694;2023-06-26T11:17:27;93907.97;;;27.97;37.71
24610;BME280;12758;47.890;11.694;2023-06-26T11:19:55;93900.41;;;27.81;38.50
24610;BME280;12758;47.890;11.694;2023-06-26T11:22:21;93910.88;;;27.77;38.87
24610;BME280;12758;47.890;11.694;2023-06-26T11:24:47;93911.38;;;27.89;39.12
24610;BME280;12758;47.890;11.694;2023-06-26T11:27:14;93910.09;;;27.93;37.77
24610;BME280;12758;47.890;11.694;2023-06-26T11:29:47;93903.09;;;28.30;37.67
24610;BME280;12758;47.890;11.694;2023-06-26T11:32:14;93891.44;;;28.19;37.97
24610;BME280;12758;47.890;11.694;2023-06-26T11:34:40;93898.22;;;28.18;38.78
24610;BME280;12758;47.890;11.694;2023-06-26T11:37:08;93896.03;;;28.26;39.17
24610;BME280;12758;47.890;11.694;2023-06-26T11:39:34;93897.81;;;28.20;38.59
24610;BME280;12758;47.890;11.694;2023-06-26T11:42:02;93903.28;;;28.23;38.43
24610;BME280;12758;47.890;11.694;2023-06-26T11:44:30;93902.28;;;28.01;39.56
24610;BME280;12758;47.890;11.694;2023-06-26T11:46:57;93902.75;;;27.83;39.25
24610;BME280;12758;47.890;11.694;2023-06-26T11:49:23;93895.63;;;28.11;38.84
24610;BME280;12758;47.890;11.694;2023-06-26T11:51:51;93890.75;;;28.15;40.08
24610;BME280;12758;47.890;11.694;2023-06-26T11:54:24;93896.34;;;28.44;38.83
24610;BME280;12758;47.890;11.694;2023-06-26T11:56:57;93893.19;;;28.71;36.46
24610;BME280;12758;47.890;11.694;2023-06-26T11:59:23;93877.13;;;28.46;37.89
24610;BME280;12758;47.890;11.694;2023-06-26T12:01:50;93888.34;;;28.59;38.37
24610;BME280;12758;47.890;11.694;2023-06-26T12:04:17;93881.06;;;28.49;37.85
24610;BME280;12758;47.890;11.694;2023-06-26T12:06:46;93888.06;;;28.95;38.17
24610;BME280;12758;47.890;11.694;2023-06-26T12:09:13;93883.16;;;28.87;36.91
24610;BME280;12758;47.890;11.694;2023-06-26T12:11:41;93879.47;;;28.90;37.07
24610;BME280;12758;47.890;11.694;2023-06-26T12:14:08;93887.66;;;29.22;35.73
24610;BME280;12758;47.890;11.694;2023-06-26T12:16:35;93886.19;;;29.18;37.08
24610;BME280;12758;47.890;11.694;2023-06-26T12:19:02;93894.06;;;28.68;36.78
24610;BME280;12758;47.890;11.694;2023-06-26T12:21:42;93886.13;;;28.79;38.10
24610;BME280;12758;47.890;11.694;2023-06-26T12:24:12;93887.28;;;28.95;37.19
24610;BME280;12758;47.890;11.694;2023-06-26T12:26:42;93892.69;;;28.60;38.32
24610;BME280;12758;47.890;11.694;2023-06-26T12:29:10;93891.47;;;29.29;37.43
24610;BME280;12758;47.890;11.694;2023-06-26T12:31:39;93881.28;;;29.47;36.36
24610;BME280;12758;47.890;11.694;2023-06-26T12:34:09;93888.78;;;29.12;36.49
24610;BME280;12758;47.890;11.694;2023-06-26T12:36:39;93881.25;;;28.96;36.72
24610;BME280;12758;47.890;11.694;2023-06-26T12:39:08;93878.69;;;29.02;35.68
24610;BME280;12758;47.890;11.694;2023-06-26T12:41:34;93880.72;;;29.14;36.27
24610;BME280;12758;47.890;11.694;2023-06-26T12:44:01;93886.53;;;29.07;36.49
24610;BME280;12758;47.890;11.694;2023-06-26T12:46:33;93866.16;;;29.45;35.08
24610;BME280;12758;47.890;11.694;2023-06-26T12:49:00;93873.09;;;29.28;36.59